TJBQ/BQN METAR and TAF weather

Enter ICAO airport designator
Station Type Date Time Source
TJBQ METAR 2021/05/10 00:50 UTC NOAA

TJBQ 100050Z 11006KT 10SM CLR 24/24 A3011 RMK LTG DSNT W AND NW


Station Type Date Time Source
TJBQ Decoded METAR 2021/05/10 00:50 UTC NOAA

Aquadilla, Rafael Hernandez Airport, PR, United States (TJBQ) 18-30N 067-08W 69M
May 09, 2021 - 08:50 PM EDT / 2021.05.10 0050 UTC
Wind: from the ESE (110 degrees) at 7 MPH (6 KT):0
Visibility: 10 mile(s):0
Sky conditions: clear
Weather: Lightning observed
Temperature: 75 F (24 C)
Dew Point: 75 F (24 C)
Relative Humidity: 100%
Pressure (altimeter): 30.11 in. Hg (1019 hPa)
ob: TJBQ 100050Z 11006KT 10SM CLR 24/24 A3011 RMK LTG DSNT W AND NW
cycle: 1

Station Type Date Time Source
TJBQ TAF 2021/05/10 01:30 UTC NOAA

TAF TJBQ 100121Z 1001/1024 12006KT P6SM VCSH SCT025
FM100200 11008KT P6SM VCSH SCT025 BKN030
FM101900 08015G20KT P6SM VCSH SCT035 BKN040
AMD NOT SKED 1002/1011

Example: see airport list